Airfield :
LOGIN :

Register | Disclaimer

   EN    FR    IT 

 










Legend :    VFR   Marginal VFR   IFR   Intensive IFR   Very Intensive IFR
Visi :
Ceiling :
>= 8 km
>= 3000ft
5 to 8 km
1000 to 3000 ft
1500m to 5 km
500 to 1000 ft
800 to 1500m
200 to 500 ft
< 800m
< 200 ft
Symbols :   Thunderstorms  Fog  Heavy snow  Heavy precipitations  Wind > 20 kt
SIGMETs :     Misc.  Thunderstorms  Icing  Turbulence  Mountain Waves  Volcanic Ashes






- Airport Elevation : 270 ft
- IATA code : OXF


EGTK - Oxford (Kidlington)

CURRENT METAR :
  • 280820Z 32010KT CAVOK M01/M05 Q1007

EXPIRED METARs :
  • 280750Z 32011KT CAVOK M01/M05 Q1007
  • 280720Z 32012KT CAVOK M01/M05 Q1007
  • 280650Z 31013KT CAVOK M01/M05 Q1007
  • 280620Z 31010KT CAVOK M01/M05 Q1007

TAF TAF EGTK
Valid from the 28 at 09:00 until the 28 at 18:00 UTC


280756Z 2809/2818 32009KT 9999 FEW035
PROB30
TEMPO 2814/2818 4000 RASN BKN008



MET'MAP, your aeronautical weather chart ! - Copyright ORBIFLY December 2007 - Disclaimer

ORBIFLY MET'MAP TEAM :

Programming & Development : Alexandra Zaïnal
Concept & original design : Baudouin d'Aumeries
Assistance for programming : Marc-Olivier Méhu
Technical & hardware support : Manuel Goepfert

Contact : metmap@orbifly.com




SOURCES & CREDITS :

   NOAA